Time,TemperatureF,DewpointF,PressureIn,WindDirection,WindDirectionDegrees,WindSpeedMPH,WindSpeedGustMPH,Humidity,HourlyPrecipIn,Conditions,Clouds,dailyrainin,SoftwareType,DateUTC
2013-03-16 00:00:00,65.7,55.2,30.15,NNE,23,0.0,0.0,69,0.00,,,0.00,WeatherCatV1.13B119,2013-03-16 04:00:00,
2013-03-16 00:05:00,65.6,55.1,30.15,NNE,22,0.0,0.0,69,0.00,,,0.00,WeatherCatV1.13B119,2013-03-16 04:05:00,
2013-03-16 00:06:00,65.6,55.1,30.15,NNE,22,0.0,0.0,69,0.00,,,0.00,WeatherCatV1.13B119,2013-03-16 04:06:00,
2013-03-16 00:11:00,65.5,55.1,30.15,NNE,22,0.0,0.0,69,0.00,,,0.00,WeatherCatV1.13B119,2013-03-16 04:11:00,
2013-03-16 00:16:00,65.4,55.0,30.14,NNE,22,0.0,0.0,69,0.00,,,0.00,WeatherCatV1.13B119,2013-03-16 04:16:00,
2013-03-16 00:21:00,65.2,54.8,30.14,NNE,22,0.0,0.0,69,0.00,,,0.00,WeatherCatV1.13B119,2013-03-16 04:21:00,
2013-03-16 00:26:00,65.0,55.0,30.14,NNE,22,0.0,0.0,70,0.00,,,0.00,WeatherCatV1.13B119,2013-03-16 04:26:00,
2013-03-16 00:31:00,64.9,54.9,30.14,NNE,22,0.0,0.0,70,0.00,,,0.00,WeatherCatV1.13B119,2013-03-16 04:31:00,
2013-03-16 00:36:00,64.8,54.8,30.14,NNE,22,0.0,0.0,70,0.00,,,0.00,WeatherCatV1.13B119,2013-03-16 04:36:00,
2013-03-16 00:41:00,64.7,55.1,30.14,NNE,22,0.0,0.0,71,0.00,,,0.00,WeatherCatV1.13B119,2013-03-16 04:41:00,
2013-03-16 00:46:00,64.5,54.9,30.14,NNE,22,0.0,0.0,71,0.00,,,0.00,WeatherCatV1.13B119,2013-03-16 04:46:00,
2013-03-16 00:51:00,64.3,54.7,30.14,NNE,22,0.0,0.0,71,0.00,,,0.00,WeatherCatV1.13B119,2013-03-16 04:51:00,
2013-03-16 00:56:00,64.2,54.6,30.14,NNE,22,0.0,0.0,71,0.00,,,0.00,WeatherCatV1.13B119,2013-03-16 04:56:00,
2013-03-16 01:01:00,64.1,54.9,30.13,NNE,22,0.0,0.0,72,0.00,,,0.00,WeatherCatV1.13B119,2013-03-16 05:01:00,
2013-03-16 01:06:00,64.0,54.8,30.14,NNE,22,0.0,0.0,72,0.00,,,0.00,WeatherCatV1.13B119,2013-03-16 05:06:00,
2013-03-16 01:11:00,63.9,54.7,30.13,NNE,22,0.0,0.0,72,0.00,,,0.00,WeatherCatV1.13B119,2013-03-16 05:11:00,
2013-03-16 01:16:00,63.9,54.7,30.13,NNE,22,0.0,1.0,72,0.00,,,0.00,WeatherCatV1.13B119,2013-03-16 05:16:00,
2013-03-16 01:21:00,63.8,54.6,30.13,NNE,22,0.0,0.0,72,0.00,,,0.00,WeatherCatV1.13B119,2013-03-16 05:21:00,
2013-03-16 01:26:00,63.8,54.6,30.13,NNE,22,0.0,0.0,72,0.00,,,0.00,WeatherCatV1.13B119,2013-03-16 05:26:00,
2013-03-16 01:31:00,63.7,54.9,30.13,NNE,22,0.0,0.0,73,0.00,,,0.00,WeatherCatV1.13B119,2013-03-16 05:31:00,
2013-03-16 01:36:00,63.7,54.9,30.13,NNE,22,0.0,0.0,73,0.00,,,0.00,WeatherCatV1.13B119,2013-03-16 05:36:00,
2013-03-16 01:41:00,63.7,55.3,30.13,NNE,22,0.0,0.0,74,0.00,,,0.00,WeatherCatV1.13B119,2013-03-16 05:41:00,
2013-03-16 01:46:00,63.6,55.2,30.13,NNE,22,0.0,0.0,74,0.00,,,0.00,WeatherCatV1.13B119,2013-03-16 05:46:00,
2013-03-16 01:51:00,63.6,55.2,30.13,NNE,22,0.0,0.0,74,0.00,,,0.00,WeatherCatV1.13B119,2013-03-16 05:51:00,
2013-03-16 01:56:00,63.6,55.2,30.13,NNE,22,0.0,0.0,74,0.00,,,0.00,WeatherCatV1.13B119,2013-03-16 05:56:00,
2013-03-16 02:01:00,63.6,55.2,30.13,NNE,22,0.0,0.0,74,0.00,,,0.00,WeatherCatV1.13B119,2013-03-16 06:01:00,
2013-03-16 02:06:00,63.6,55.2,30.13,NNE,22,0.0,0.0,74,0.00,,,0.00,WeatherCatV1.13B119,2013-03-16 06:06:00,
2013-03-16 02:11:00,63.6,55.2,30.13,NNE,22,0.0,0.0,74,0.00,,,0.00,WeatherCatV1.13B119,2013-03-16 06:11:00,
2013-03-16 02:16:00,63.6,55.5,30.13,NNE,22,0.0,0.0,75,0.00,,,0.00,WeatherCatV1.13B119,2013-03-16 06:16:00,
2013-03-16 02:21:00,63.7,55.6,30.13,NNE,21,0.0,0.0,75,0.00,,,0.00,WeatherCatV1.13B119,2013-03-16 06:21:00,
2013-03-16 02:26:00,63.6,55.5,30.12,NNE,22,1.0,1.0,75,0.00,,,0.00,WeatherCatV1.13B119,2013-03-16 06:26:00,
2013-03-16 02:31:00,63.6,55.5,30.12,NNE,21,0.0,0.0,75,0.00,,,0.00,WeatherCatV1.13B119,2013-03-16 06:31:00,
2013-03-16 02:36:00,63.6,55.5,30.12,NNE,21,0.0,0.0,75,0.00,,,0.00,WeatherCatV1.13B119,2013-03-16 06:36:00,
2013-03-16 02:41:00,63.7,55.6,30.12,NNE,22,0.0,0.0,75,0.00,,,0.00,WeatherCatV1.13B119,2013-03-16 06:41:00,
2013-03-16 02:46:00,63.7,55.6,30.12,NNE,22,0.0,0.0,75,0.00,,,0.00,WeatherCatV1.13B119,2013-03-16 06:46:00,
2013-03-16 02:51:00,63.8,55.7,30.12,NNE,22,0.0,0.0,75,0.00,,,0.00,WeatherCatV1.13B119,2013-03-16 06:51:00,
2013-03-16 02:56:00,63.8,56.1,30.12,NNE,22,0.0,0.0,76,0.00,,,0.00,WeatherCatV1.13B119,2013-03-16 06:56:00,
2013-03-16 03:01:00,63.8,56.1,30.12,NNE,21,0.0,0.0,76,0.00,,,0.00,WeatherCatV1.13B119,2013-03-16 07:01:00,
2013-03-16 03:06:00,63.8,56.1,30.12,NNE,22,0.0,0.0,76,0.00,,,0.00,WeatherCatV1.13B119,2013-03-16 07:06:00,
2013-03-16 03:11:00,63.9,56.2,30.12,NNE,22,0.0,0.0,76,0.00,,,0.00,WeatherCatV1.13B119,2013-03-16 07:11:00,
2013-03-16 03:16:00,63.9,56.5,30.12,NNE,22,0.0,0.0,77,0.00,,,0.00,WeatherCatV1.13B119,2013-03-16 07:16:00,
2013-03-16 03:21:00,63.8,56.1,30.12,NNE,21,0.0,0.0,76,0.00,,,0.00,WeatherCatV1.13B119,2013-03-16 07:21:00,
2013-03-16 03:26:00,63.8,56.1,30.12,NNE,21,0.0,0.0,76,0.00,,,0.00,WeatherCatV1.13B119,2013-03-16 07:26:00,
2013-03-16 03:31:00,63.8,56.1,30.12,NNE,22,0.0,0.0,76,0.00,,,0.00,WeatherCatV1.13B119,2013-03-16 07:31:00,
2013-03-16 03:36:00,63.7,56.0,30.12,NNE,22,0.0,0.0,76,0.00,,,0.00,WeatherCatV1.13B119,2013-03-16 07:36:00,
2013-03-16 03:41:00,63.7,56.0,30.12,NNE,21,0.0,0.0,76,0.00,,,0.00,WeatherCatV1.13B119,2013-03-16 07:41:00,
2013-03-16 03:46:00,63.5,55.8,30.11,NNE,22,0.0,0.0,76,0.00,,,0.00,WeatherCatV1.13B119,2013-03-16 07:46:00,
2013-03-16 03:51:00,63.5,55.8,30.11,NNE,22,0.0,0.0,76,0.00,,,0.00,WeatherCatV1.13B119,2013-03-16 07:51:00,
2013-03-16 03:56:00,-999.0,-99.9,30.11,North,-999,-999.0,0.0,-999,0.00,,,0.00,WeatherCatV1.13B119,2013-03-16 07:56:00,
2013-03-16 04:01:00,-999.0,-99.9,30.11,North,-999,-999.0,0.0,-999,0.00,,,0.00,WeatherCatV1.13B119,2013-03-16 08:01:00,
2013-03-16 04:06:00,-999.0,-99.9,30.11,North,-999,-999.0,0.0,-999,0.00,,,0.00,WeatherCatV1.13B119,2013-03-16 08:06:00,
2013-03-16 04:11:00,-999.0,-99.9,30.11,North,-999,-999.0,0.0,-999,0.00,,,0.00,WeatherCatV1.13B119,2013-03-16 08:11:00,
2013-03-16 04:16:00,-999.0,-99.9,30.11,North,-999,-999.0,0.0,-999,0.00,,,0.00,WeatherCatV1.13B119,2013-03-16 08:16:00,
2013-03-16 04:21:00,-999.0,-99.9,30.11,North,-999,-999.0,0.0,-999,0.00,,,0.00,WeatherCatV1.13B119,2013-03-16 08:21:00,
2013-03-16 04:26:00,-999.0,-99.9,30.11,North,-999,-999.0,0.0,-999,0.00,,,0.00,WeatherCatV1.13B119,2013-03-16 08:26:00,
2013-03-16 04:31:00,-999.0,-99.9,30.10,North,-999,-999.0,0.0,-999,0.00,,,0.00,WeatherCatV1.13B119,2013-03-16 08:31:00,
2013-03-16 04:36:00,-999.0,-99.9,30.11,North,-999,-999.0,0.0,-999,0.00,,,0.00,WeatherCatV1.13B119,2013-03-16 08:36:00,
2013-03-16 04:41:00,-999.0,-99.9,30.11,North,-999,-999.0,0.0,-999,0.00,,,0.00,WeatherCatV1.13B119,2013-03-16 08:41:00,
2013-03-16 04:46:00,-999.0,-99.9,30.10,North,-999,-999.0,0.0,-999,0.00,,,0.00,WeatherCatV1.13B119,2013-03-16 08:46:00,
2013-03-16 04:51:00,-999.0,-99.9,30.11,North,-999,-999.0,0.0,-999,0.00,,,0.00,WeatherCatV1.13B119,2013-03-16 08:51:00,
2013-03-16 04:56:00,-999.0,-99.9,30.11,North,-999,-999.0,0.0,-999,0.00,,,0.00,WeatherCatV1.13B119,2013-03-16 08:56:00,
2013-03-16 05:01:00,-999.0,-99.9,30.11,North,-999,-999.0,0.0,-999,0.00,,,0.00,WeatherCatV1.13B119,2013-03-16 09:01:00,
2013-03-16 05:06:00,-999.0,-99.9,30.11,North,-999,-999.0,0.0,-999,0.00,,,0.00,WeatherCatV1.13B119,2013-03-16 09:06:00,
2013-03-16 05:11:00,-999.0,-99.9,30.10,North,-999,-999.0,0.0,-999,0.00,,,0.00,WeatherCatV1.13B119,2013-03-16 09:11:00,
2013-03-16 05:16:00,-999.0,-99.9,30.11,North,-999,-999.0,0.0,-999,0.00,,,0.00,WeatherCatV1.13B119,2013-03-16 09:16:00,
2013-03-16 05:21:00,-999.0,-99.9,30.10,North,-999,-999.0,0.0,-999,0.00,,,0.00,WeatherCatV1.13B119,2013-03-16 09:21:00,
2013-03-16 05:26:00,-999.0,-99.9,30.10,North,-999,-999.0,0.0,-999,0.00,,,0.00,WeatherCatV1.13B119,2013-03-16 09:26:00,
2013-03-16 05:31:00,-999.0,-99.9,30.10,North,-999,-999.0,0.0,-999,0.00,,,0.00,WeatherCatV1.13B119,2013-03-16 09:31:00,
2013-03-16 05:36:00,-999.0,-99.9,30.10,North,-999,-999.0,0.0,-999,0.00,,,0.00,WeatherCatV1.13B119,2013-03-16 09:36:00,
2013-03-16 05:41:00,-999.0,-99.9,30.10,North,-999,-999.0,0.0,-999,0.00,,,0.00,WeatherCatV1.13B119,2013-03-16 09:41:00,
2013-03-16 05:46:00,-999.0,-99.9,30.10,North,-999,-999.0,0.0,-999,0.00,,,0.00,WeatherCatV1.13B119,2013-03-16 09:46:00,
2013-03-16 05:51:00,-999.0,-99.9,30.10,North,-999,-999.0,0.0,-999,0.00,,,0.00,WeatherCatV1.13B119,2013-03-16 09:51:00,
2013-03-16 05:56:00,-999.0,-99.9,30.11,North,-999,-999.0,0.0,-999,0.00,,,0.00,WeatherCatV1.13B119,2013-03-16 09:56:00,
2013-03-16 06:01:00,-999.0,-99.9,30.11,North,-999,-999.0,0.0,-999,0.00,,,0.00,WeatherCatV1.13B119,2013-03-16 10:01:00,
2013-03-16 06:06:00,-999.0,-99.9,30.11,North,-999,-999.0,0.0,-999,0.00,,,0.00,WeatherCatV1.13B119,2013-03-16 10:06:00,
2013-03-16 06:11:00,-999.0,-99.9,30.11,North,-999,-999.0,0.0,-999,0.00,,,0.00,WeatherCatV1.13B119,2013-03-16 10:11:00,
2013-03-16 06:16:00,-999.0,-99.9,30.11,North,-999,-999.0,0.0,-999,0.00,,,0.00,WeatherCatV1.13B119,2013-03-16 10:16:00,
2013-03-16 06:21:00,-999.0,-99.9,30.11,North,-999,-999.0,0.0,-999,0.00,,,0.00,WeatherCatV1.13B119,2013-03-16 10:21:00,
2013-03-16 06:26:00,-999.0,-99.9,30.12,North,-999,-999.0,0.0,-999,0.00,,,0.00,WeatherCatV1.13B119,2013-03-16 10:26:00,
2013-03-16 06:31:00,-999.0,-99.9,30.12,North,-999,-999.0,0.0,-999,0.00,,,0.00,WeatherCatV1.13B119,2013-03-16 10:31:00,
2013-03-16 06:36:00,-999.0,-99.9,30.12,North,-999,-999.0,0.0,-999,0.00,,,0.00,WeatherCatV1.13B119,2013-03-16 10:36:00,
2013-03-16 06:41:00,-999.0,-99.9,30.12,North,-999,-999.0,0.0,-999,0.00,,,0.00,WeatherCatV1.13B119,2013-03-16 10:41:00,
2013-03-16 06:47:00,-999.0,-99.9,30.12,North,-999,-999.0,0.0,-999,0.00,,,0.00,WeatherCatV1.13B119,2013-03-16 10:47:00,
2013-03-16 06:52:00,-999.0,-99.9,30.13,North,-999,-999.0,0.0,-999,0.00,,,0.00,WeatherCatV1.13B119,2013-03-16 10:52:00,
2013-03-16 06:57:00,-999.0,-99.9,30.13,North,-999,-999.0,0.0,-999,0.00,,,0.00,WeatherCatV1.13B119,2013-03-16 10:57:00,
2013-03-16 07:02:00,-999.0,-99.9,30.13,North,-999,-999.0,0.0,-999,0.00,,,0.00,WeatherCatV1.13B119,2013-03-16 11:02:00,
2013-03-16 07:07:00,-999.0,-99.9,30.13,North,-999,-999.0,0.0,-999,0.00,,,0.00,WeatherCatV1.13B119,2013-03-16 11:07:00,
2013-03-16 07:12:00,-999.0,-99.9,30.13,North,-999,-999.0,0.0,-999,0.00,,,0.00,WeatherCatV1.13B119,2013-03-16 11:12:00,
2013-03-16 07:17:00,-999.0,-99.9,30.13,North,-999,-999.0,0.0,-999,0.00,,,0.00,WeatherCatV1.13B119,2013-03-16 11:17:00,
2013-03-16 07:22:00,-999.0,-99.9,30.13,North,-999,-999.0,0.0,-999,0.00,,,0.00,WeatherCatV1.13B119,2013-03-16 11:22:00,
2013-03-16 07:27:00,-999.0,-99.9,30.13,North,-999,-999.0,0.0,-999,0.00,,,0.00,WeatherCatV1.13B119,2013-03-16 11:27:00,
2013-03-16 07:32:00,-999.0,-99.9,30.13,North,-999,-999.0,0.0,-999,0.00,,,0.00,WeatherCatV1.13B119,2013-03-16 11:32:00,
2013-03-16 07:37:00,-999.0,-99.9,30.13,North,-999,-999.0,0.0,-999,0.00,,,0.00,WeatherCatV1.13B119,2013-03-16 11:37:00,
2013-03-16 07:42:00,-999.0,-99.9,30.13,North,-999,-999.0,0.0,-999,0.00,,,0.00,WeatherCatV1.13B119,2013-03-16 11:42:00,
2013-03-16 07:47:00,-999.0,-99.9,30.14,North,-999,-999.0,0.0,-999,0.00,,,0.00,WeatherCatV1.13B119,2013-03-16 11:47:00,
2013-03-16 07:51:00,-999.0,-99.9,30.14,North,-999,-999.0,0.0,-999,0.00,,,0.00,WeatherCatV1.13B119,2013-03-16 11:51:00,
2013-03-16 07:56:00,-999.0,-99.9,30.14,North,-999,-999.0,0.0,-999,0.00,,,0.00,WeatherCatV1.13B119,2013-03-16 11:56:00,
2013-03-16 08:01:00,-999.0,-99.9,30.14,North,-999,-999.0,0.0,-999,0.00,,,0.00,WeatherCatV1.13B119,2013-03-16 12:01:00,
2013-03-16 08:07:00,-999.0,-99.9,30.14,North,-999,-999.0,0.0,-999,0.00,,,0.00,WeatherCatV1.13B119,2013-03-16 12:07:00,
2013-03-16 08:12:00,-999.0,-99.9,30.14,North,-999,-999.0,0.0,-999,0.00,,,0.00,WeatherCatV1.13B119,2013-03-16 12:12:00,
2013-03-16 08:17:00,-999.0,-99.9,30.14,North,-999,-999.0,0.0,-999,0.00,,,0.00,WeatherCatV1.13B119,2013-03-16 12:17:00,
2013-03-16 08:22:00,-999.0,-99.9,30.14,North,-999,-999.0,0.0,-999,0.00,,,0.00,WeatherCatV1.13B119,2013-03-16 12:22:00,
2013-03-16 08:27:00,-999.0,-99.9,30.14,North,-999,-999.0,0.0,-999,0.00,,,0.00,WeatherCatV1.13B119,2013-03-16 12:27:00,
2013-03-16 08:31:00,-999.0,-99.9,30.14,North,-999,-999.0,0.0,-999,0.00,,,0.00,WeatherCatV1.13B119,2013-03-16 12:31:00,
2013-03-16 08:36:00,-999.0,-99.9,30.14,North,-999,-999.0,0.0,-999,0.00,,,0.00,WeatherCatV1.13B119,2013-03-16 12:36:00,
2013-03-16 08:41:00,64.7,57.7,30.14,North,10,0.0,0.0,78,0.00,,,0.00,WeatherCatV1.13B119,2013-03-16 12:41:00,
2013-03-16 08:46:00,64.7,57.3,30.14,NNE,32,6.0,7.0,77,0.00,,,0.00,WeatherCatV1.13B119,2013-03-16 12:46:00,
2013-03-16 08:51:00,64.7,57.3,30.14,North,0,0.0,5.0,77,0.00,,,0.00,WeatherCatV1.13B119,2013-03-16 12:51:00,
2013-03-16 08:56:00,64.7,57.3,30.14,NNE,17,4.0,4.0,77,0.00,,,0.00,WeatherCatV1.13B119,2013-03-16 12:56:00,
2013-03-16 09:01:00,64.9,57.9,30.15,NNE,15,2.0,9.0,78,0.00,,,0.00,WeatherCatV1.13B119,2013-03-16 13:01:00,
2013-03-16 09:06:00,65.0,58.0,30.15,North,0,0.0,6.0,78,0.00,,,0.00,WeatherCatV1.13B119,2013-03-16 13:06:00,
2013-03-16 09:11:00,65.1,57.7,30.15,North,0,0.0,9.0,77,0.00,,,0.00,WeatherCatV1.13B119,2013-03-16 13:11:00,
2013-03-16 09:16:00,65.2,57.8,30.15,ENE,65,0.0,8.0,77,0.00,,,0.00,WeatherCatV1.13B119,2013-03-16 13:16:00,
2013-03-16 09:21:00,65.5,57.7,30.15,NNE,19,0.0,5.0,76,0.00,,,0.00,WeatherCatV1.13B119,2013-03-16 13:21:00,
2013-03-16 09:27:00,65.8,57.6,30.15,NNE,24,0.0,9.0,75,0.00,,,0.00,WeatherCatV1.13B119,2013-03-16 13:27:00,
2013-03-16 09:31:00,66.1,57.6,30.15,NNE,19,2.0,2.0,74,0.00,,,0.00,WeatherCatV1.13B119,2013-03-16 13:31:00,
2013-03-16 09:36:00,66.5,57.9,30.15,North,350,1.0,6.0,74,0.00,,,0.00,WeatherCatV1.13B119,2013-03-16 13:36:00,
2013-03-16 09:41:00,66.6,57.3,30.16,NNE,20,1.0,7.0,72,0.00,,,0.00,WeatherCatV1.13B119,2013-03-16 13:41:00,
2013-03-16 09:46:00,66.8,57.9,30.16,North,0,2.0,8.0,73,0.00,,,0.00,WeatherCatV1.13B119,2013-03-16 13:46:00,
2013-03-16 09:52:00,66.9,57.2,30.16,ENE,78,0.0,6.0,71,0.00,,,0.00,WeatherCatV1.13B119,2013-03-16 13:52:00,
2013-03-16 09:56:00,67.0,56.9,30.16,NNE,14,8.0,8.0,70,0.00,,,0.00,WeatherCatV1.13B119,2013-03-16 13:56:00,
2013-03-16 10:02:00,67.1,57.0,30.16,North,0,0.0,0.0,70,0.00,,,0.00,WeatherCatV1.13B119,2013-03-16 14:02:00,
2013-03-16 10:07:00,67.5,57.0,30.16,NNE,16,0.0,6.0,69,0.00,,,0.00,WeatherCatV1.13B119,2013-03-16 14:07:00,
2013-03-16 10:12:00,68.1,56.7,30.16,NNE,18,4.0,7.0,67,0.00,,,0.00,WeatherCatV1.13B119,2013-03-16 14:12:00,
2013-03-16 10:16:00,68.4,57.0,30.17,NNE,27,0.0,4.0,67,0.00,,,0.00,WeatherCatV1.13B119,2013-03-16 14:16:00,
2013-03-16 10:21:00,68.9,56.6,30.17,North,5,0.0,7.0,65,0.00,,,0.00,WeatherCatV1.13B119,2013-03-16 14:21:00,
2013-03-16 10:26:00,69.6,56.0,30.17,NNE,18,0.0,6.0,62,0.00,,,0.00,WeatherCatV1.13B119,2013-03-16 14:26:00,
2013-03-16 10:32:00,69.4,56.2,30.17,North,0,0.0,5.0,63,0.00,,,0.00,WeatherCatV1.13B119,2013-03-16 14:32:00,
2013-03-16 10:37:00,69.2,56.1,30.17,NNE,14,1.0,7.0,63,0.00,,,0.00,WeatherCatV1.13B119,2013-03-16 14:37:00,
2013-03-16 10:42:00,69.2,56.5,30.17,NNE,14,0.0,7.0,64,0.00,,,0.00,WeatherCatV1.13B119,2013-03-16 14:42:00,
2013-03-16 10:47:00,69.3,56.2,30.16,NNE,14,0.0,0.0,63,0.00,,,0.00,WeatherCatV1.13B119,2013-03-16 14:47:00,
2013-03-16 10:52:00,69.6,56.9,30.16,North,355,0.0,1.0,64,0.00,,,0.00,WeatherCatV1.13B119,2013-03-16 14:52:00,
2013-03-16 10:57:00,70.1,56.5,30.16,North,0,0.0,0.0,62,0.00,,,0.00,WeatherCatV1.13B119,2013-03-16 14:57:00,
2013-03-16 11:02:00,69.9,56.7,30.16,NNE,13,0.0,7.0,63,0.00,,,0.00,WeatherCatV1.13B119,2013-03-16 15:02:00,
2013-03-16 11:07:00,70.0,56.8,30.16,North,0,0.0,5.0,63,0.00,,,0.00,WeatherCatV1.13B119,2013-03-16 15:07:00,
2013-03-16 11:12:00,70.0,56.8,30.16,NNE,18,0.0,2.0,63,0.00,,,0.00,WeatherCatV1.13B119,2013-03-16 15:12:00,
2013-03-16 11:16:00,70.6,57.4,30.16,North,9,0.0,6.0,63,0.00,,,0.00,WeatherCatV1.13B119,2013-03-16 15:16:00,
2013-03-16 11:21:00,70.5,56.8,30.16,NNE,18,0.0,7.0,62,0.00,,,0.00,WeatherCatV1.13B119,2013-03-16 15:21:00,
2013-03-16 11:26:00,70.6,57.8,30.15,NNE,19,0.0,0.0,64,0.00,,,0.00,WeatherCatV1.13B119,2013-03-16 15:26:00,
2013-03-16 11:31:00,70.4,56.3,30.16,NNE,22,0.0,1.0,61,0.00,,,0.00,WeatherCatV1.13B119,2013-03-16 15:31:00,
2013-03-16 11:36:00,70.6,56.9,30.16,NNE,14,3.0,5.0,62,0.00,,,0.00,WeatherCatV1.13B119,2013-03-16 15:36:00,
2013-03-16 11:41:00,70.6,56.9,30.16,North,5,5.0,7.0,62,0.00,,,0.00,WeatherCatV1.13B119,2013-03-16 15:41:00,
2013-03-16 11:46:00,70.8,57.6,30.15,NNE,12,0.0,0.0,63,0.00,,,0.00,WeatherCatV1.13B119,2013-03-16 15:46:00,
2013-03-16 11:51:00,71.2,57.0,30.15,NNE,15,0.0,0.0,61,0.00,,,0.00,WeatherCatV1.13B119,2013-03-16 15:51:00,
2013-03-16 11:56:00,72.4,57.2,30.15,East,95,0.0,4.0,59,0.00,,,0.00,WeatherCatV1.13B119,2013-03-16 15:56:00,
2013-03-16 12:01:00,72.3,56.7,30.15,East,98,0.0,2.0,58,0.00,,,0.00,WeatherCatV1.13B119,2013-03-16 16:01:00,
2013-03-16 12:06:00,72.2,56.1,30.15,East,100,0.0,1.0,57,0.00,,,0.00,WeatherCatV1.13B119,2013-03-16 16:06:00,
2013-03-16 12:11:00,72.0,55.4,30.15,ENE,60,0.0,0.0,56,0.00,,,0.00,WeatherCatV1.13B119,2013-03-16 16:11:00,
2013-03-16 12:16:00,72.5,55.4,30.14,East,93,0.0,0.0,55,0.00,,,0.00,WeatherCatV1.13B119,2013-03-16 16:16:00,
2013-03-16 12:21:00,72.1,56.0,30.15,East,90,0.0,1.0,57,0.00,,,0.00,WeatherCatV1.13B119,2013-03-16 16:21:00,
2013-03-16 12:26:00,72.1,56.5,30.15,SE,125,0.0,5.0,58,0.00,,,0.00,WeatherCatV1.13B119,2013-03-16 16:26:00,
2013-03-16 12:31:00,72.0,56.4,30.14,SE,130,0.0,2.0,58,0.00,,,0.00,WeatherCatV1.13B119,2013-03-16 16:31:00,
2013-03-16 12:36:00,72.8,57.1,30.14,SSE,147,1.0,5.0,58,0.00,,,0.00,WeatherCatV1.13B119,2013-03-16 16:36:00,
2013-03-16 12:41:00,73.0,57.3,30.14,SE,134,0.0,0.0,58,0.00,,,0.00,WeatherCatV1.13B119,2013-03-16 16:41:00,
2013-03-16 12:46:00,72.9,56.8,30.14,SE,129,0.0,4.0,57,0.00,,,0.00,WeatherCatV1.13B119,2013-03-16 16:46:00,
2013-03-16 12:51:00,73.0,56.9,30.14,ESE,103,0.0,2.0,57,0.00,,,0.00,WeatherCatV1.13B119,2013-03-16 16:51:00,
2013-03-16 12:56:00,73.8,57.1,30.13,East,90,0.0,7.0,56,0.00,,,0.00,WeatherCatV1.13B119,2013-03-16 16:56:00,
2013-03-16 13:01:00,73.2,56.5,30.13,SE,143,0.0,7.0,56,0.00,,,0.00,WeatherCatV1.13B119,2013-03-16 17:01:00,
2013-03-16 13:06:00,73.7,57.5,30.13,SE,140,0.0,5.0,57,0.00,,,0.00,WeatherCatV1.13B119,2013-03-16 17:06:00,
2013-03-16 13:11:00,73.6,57.9,30.13,ESE,121,0.0,2.0,58,0.00,,,0.00,WeatherCatV1.13B119,2013-03-16 17:11:00,
2013-03-16 13:16:00,73.7,58.0,30.12,SE,136,0.0,5.0,58,0.00,,,0.00,WeatherCatV1.13B119,2013-03-16 17:16:00,
2013-03-16 13:22:00,73.2,57.0,30.12,ESE,105,0.0,5.0,57,0.00,,,0.00,WeatherCatV1.13B119,2013-03-16 17:22:00,
2013-03-16 13:27:00,73.6,57.4,30.12,East,92,0.0,0.0,57,0.00,,,0.00,WeatherCatV1.13B119,2013-03-16 17:27:00,
2013-03-16 13:32:00,73.3,58.1,30.12,NE,51,0.0,0.0,59,0.00,,,0.00,WeatherCatV1.13B119,2013-03-16 17:32:00,
2013-03-16 13:37:00,72.8,57.6,30.12,East,95,0.0,4.0,59,0.00,,,0.00,WeatherCatV1.13B119,2013-03-16 17:37:00,
2013-03-16 13:42:00,73.1,57.9,30.11,East,96,0.0,0.0,59,0.00,,,0.00,WeatherCatV1.13B119,2013-03-16 17:42:00,
2013-03-16 13:47:00,73.5,58.3,30.11,ESE,120,0.0,4.0,59,0.00,,,0.00,WeatherCatV1.13B119,2013-03-16 17:47:00,
2013-03-16 13:52:00,72.9,58.6,30.11,East,87,2.0,5.0,61,0.00,,,0.00,WeatherCatV1.13B119,2013-03-16 17:52:00,
2013-03-16 13:57:00,72.9,60.0,30.11,SE,128,0.0,5.0,64,0.00,,,0.00,WeatherCatV1.13B119,2013-03-16 17:57:00,
2013-03-16 14:02:00,72.6,59.7,30.11,SE,128,0.0,8.0,64,0.00,,,0.00,WeatherCatV1.13B119,2013-03-16 18:02:00,
2013-03-16 14:07:00,72.2,59.8,30.11,ESE,111,0.0,6.0,65,0.00,,,0.00,WeatherCatV1.13B119,2013-03-16 18:07:00,
2013-03-16 14:11:00,72.0,60.0,30.11,SE,141,0.0,5.0,66,0.00,,,0.00,WeatherCatV1.13B119,2013-03-16 18:11:00,
2013-03-16 14:17:00,72.1,60.5,30.11,ESE,103,2.0,9.0,67,0.00,,,0.00,WeatherCatV1.13B119,2013-03-16 18:17:00,
2013-03-16 14:21:00,72.8,60.3,30.11,East,87,3.0,10.0,65,0.00,,,0.00,WeatherCatV1.13B119,2013-03-16 18:21:00,
2013-03-16 14:27:00,72.9,60.4,30.10,ENE,76,1.0,4.0,65,0.00,,,0.00,WeatherCatV1.13B119,2013-03-16 18:27:00,
2013-03-16 14:31:00,72.4,59.5,30.10,SSE,163,0.0,6.0,64,0.00,,,0.00,WeatherCatV1.13B119,2013-03-16 18:31:00,
2013-03-16 14:36:00,71.9,59.0,30.10,SE,136,2.0,8.0,64,0.00,,,0.00,WeatherCatV1.13B119,2013-03-16 18:36:00,
2013-03-16 14:42:00,72.4,60.0,30.10,ESE,119,4.0,6.0,65,0.00,,,0.00,WeatherCatV1.13B119,2013-03-16 18:42:00,
2013-03-16 14:47:00,73.3,59.5,30.09,ESE,116,4.0,7.0,62,0.00,,,0.00,WeatherCatV1.13B119,2013-03-16 18:47:00,
2013-03-16 14:52:00,73.9,60.0,30.09,SE,125,2.0,13.0,62,0.00,,,0.00,WeatherCatV1.13B119,2013-03-16 18:52:00,
2013-03-16 14:57:00,73.9,59.6,30.09,SSE,151,7.0,10.0,61,0.00,,,0.00,WeatherCatV1.13B119,2013-03-16 18:57:00,
2013-03-16 15:02:00,73.7,59.4,30.09,ESE,102,7.0,7.0,61,0.00,,,0.00,WeatherCatV1.13B119,2013-03-16 19:02:00,
2013-03-16 15:07:00,74.4,60.1,30.09,SSE,147,9.0,9.0,61,0.00,,,0.00,WeatherCatV1.13B119,2013-03-16 19:07:00,
2013-03-16 15:12:00,74.6,59.8,30.08,SE,145,0.0,5.0,60,0.00,,,0.00,WeatherCatV1.13B119,2013-03-16 19:12:00,
2013-03-16 15:17:00,74.5,58.7,30.08,SE,126,0.0,4.0,58,0.00,,,0.00,WeatherCatV1.13B119,2013-03-16 19:17:00,
2013-03-16 15:22:00,74.4,59.1,30.08,East,100,0.0,5.0,59,0.00,,,0.00,WeatherCatV1.13B119,2013-03-16 19:22:00,
2013-03-16 15:26:00,73.8,59.0,30.08,SSE,153,5.0,7.0,60,0.00,,,0.00,WeatherCatV1.13B119,2013-03-16 19:26:00,
2013-03-16 15:31:00,74.0,59.2,30.08,SE,125,2.0,7.0,60,0.00,,,0.00,WeatherCatV1.13B119,2013-03-16 19:31:00,
2013-03-16 15:36:00,73.9,59.1,30.07,SE,140,1.0,2.0,60,0.00,,,0.00,WeatherCatV1.13B119,2013-03-16 19:36:00,
2013-03-16 15:41:00,73.7,58.9,30.07,SE,135,2.0,9.0,60,0.00,,,0.00,WeatherCatV1.13B119,2013-03-16 19:41:00,
2013-03-16 15:46:00,73.5,58.3,30.07,SE,130,1.0,10.0,59,0.00,,,0.00,WeatherCatV1.13B119,2013-03-16 19:46:00,
2013-03-16 15:51:00,73.4,58.2,30.07,SE,132,1.0,7.0,59,0.00,,,0.00,WeatherCatV1.13B119,2013-03-16 19:51:00,
2013-03-16 15:56:00,73.3,58.1,30.07,SSE,152,0.0,7.0,59,0.00,,,0.00,WeatherCatV1.13B119,2013-03-16 19:56:00,
2013-03-16 16:01:00,73.3,58.1,30.07,SSE,162,2.0,7.0,59,0.00,,,0.00,WeatherCatV1.13B119,2013-03-16 20:01:00,
2013-03-16 16:06:00,73.1,57.9,30.07,SSE,150,1.0,5.0,59,0.00,,,0.00,WeatherCatV1.13B119,2013-03-16 20:06:00,
2013-03-16 16:11:00,73.1,57.9,30.07,SSE,161,2.0,6.0,59,0.00,,,0.00,WeatherCatV1.13B119,2013-03-16 20:11:00,
2013-03-16 16:16:00,72.9,57.2,30.07,SSE,153,5.0,8.0,58,0.00,,,0.00,WeatherCatV1.13B119,2013-03-16 20:16:00,
2013-03-16 16:21:00,72.9,57.7,30.07,SE,129,0.0,7.0,59,0.00,,,0.00,WeatherCatV1.13B119,2013-03-16 20:21:00,
2013-03-16 16:26:00,73.0,57.8,30.07,SSE,156,1.0,3.0,59,0.00,,,0.00,WeatherCatV1.13B119,2013-03-16 20:26:00,
2013-03-16 16:31:00,73.0,57.3,30.07,SSE,149,1.0,5.0,58,0.00,,,0.00,WeatherCatV1.13B119,2013-03-16 20:31:00,
2013-03-16 16:36:00,72.9,57.7,30.07,ESE,120,1.0,7.0,59,0.00,,,0.00,WeatherCatV1.13B119,2013-03-16 20:36:00,
2013-03-16 16:41:00,73.0,57.3,30.07,SE,128,1.0,3.0,58,0.00,,,0.00,WeatherCatV1.13B119,2013-03-16 20:41:00,
2013-03-16 16:46:00,73.1,57.4,30.07,South,169,6.0,6.0,58,0.00,,,0.00,WeatherCatV1.13B119,2013-03-16 20:46:00,
2013-03-16 16:51:00,73.1,57.4,30.07,SSE,149,2.0,7.0,58,0.00,,,0.00,WeatherCatV1.13B119,2013-03-16 20:51:00,
2013-03-16 16:56:00,73.0,57.8,30.07,SE,143,4.0,5.0,59,0.00,,,0.00,WeatherCatV1.13B119,2013-03-16 20:56:00,
2013-03-16 17:01:00,72.8,58.1,30.07,SE,136,0.0,5.0,60,0.00,,,0.00,WeatherCatV1.13B119,2013-03-16 21:01:00,
2013-03-16 17:06:00,72.7,57.1,30.07,SE,144,1.0,8.0,58,0.00,,,0.00,WeatherCatV1.13B119,2013-03-16 21:06:00,
2013-03-16 17:11:00,72.5,56.9,30.07,ENE,67,0.0,8.0,58,0.00,,,0.00,WeatherCatV1.13B119,2013-03-16 21:11:00,
2013-03-16 17:16:00,72.3,56.7,30.07,ESE,119,1.0,4.0,58,0.00,,,0.00,WeatherCatV1.13B119,2013-03-16 21:16:00,
2013-03-16 17:21:00,72.2,56.6,30.07,East,92,0.0,7.0,58,0.00,,,0.00,WeatherCatV1.13B119,2013-03-16 21:21:00,
2013-03-16 17:26:00,72.1,57.0,30.07,ESE,121,0.0,1.0,59,0.00,,,0.00,WeatherCatV1.13B119,2013-03-16 21:26:00,
2013-03-16 17:31:00,71.9,56.8,30.07,SSE,149,0.0,7.0,59,0.00,,,0.00,WeatherCatV1.13B119,2013-03-16 21:31:00,
2013-03-16 17:36:00,71.8,56.2,30.07,SSE,149,0.0,6.0,58,0.00,,,0.00,WeatherCatV1.13B119,2013-03-16 21:36:00,
2013-03-16 17:41:00,71.7,56.1,30.07,SE,133,0.0,5.0,58,0.00,,,0.00,WeatherCatV1.13B119,2013-03-16 21:41:00,
2013-03-16 17:46:00,71.7,57.1,30.07,SE,138,0.0,6.0,60,0.00,,,0.00,WeatherCatV1.13B119,2013-03-16 21:46:00,
2013-03-16 17:51:00,71.7,57.5,30.07,ESE,109,2.0,2.0,61,0.00,,,0.00,WeatherCatV1.13B119,2013-03-16 21:51:00,
2013-03-16 17:56:00,71.7,57.1,30.08,SE,133,0.0,2.0,60,0.00,,,0.00,WeatherCatV1.13B119,2013-03-16 21:56:00,
2013-03-16 18:01:00,71.6,57.0,30.07,SSE,149,0.0,6.0,60,0.00,,,0.00,WeatherCatV1.13B119,2013-03-16 22:01:00,
2013-03-16 18:06:00,71.6,57.0,30.07,SE,145,0.0,3.0,60,0.00,,,0.00,WeatherCatV1.13B119,2013-03-16 22:06:00,
2013-03-16 18:11:00,71.6,57.4,30.07,SE,144,0.0,5.0,61,0.00,,,0.00,WeatherCatV1.13B119,2013-03-16 22:11:00,
2013-03-16 18:16:00,71.6,57.0,30.07,SE,130,0.0,5.0,60,0.00,,,0.00,WeatherCatV1.13B119,2013-03-16 22:16:00,
2013-03-16 18:21:00,71.5,56.4,30.07,SE,133,0.0,4.0,59,0.00,,,0.00,WeatherCatV1.13B119,2013-03-16 22:21:00,
2013-03-16 18:26:00,71.5,56.9,30.07,SSE,159,1.0,4.0,60,0.00,,,0.00,WeatherCatV1.13B119,2013-03-16 22:26:00,
2013-03-16 18:31:00,71.4,56.8,30.07,SE,124,7.0,7.0,60,0.00,,,0.00,WeatherCatV1.13B119,2013-03-16 22:31:00,
2013-03-16 18:36:00,71.3,56.7,30.07,SSE,154,0.0,4.0,60,0.00,,,0.00,WeatherCatV1.13B119,2013-03-16 22:36:00,
2013-03-16 18:41:00,71.3,56.2,30.07,SE,136,0.0,0.0,59,0.00,,,0.00,WeatherCatV1.13B119,2013-03-16 22:41:00,
2013-03-16 18:46:00,71.2,56.1,30.07,South,169,0.0,2.0,59,0.00,,,0.00,WeatherCatV1.13B119,2013-03-16 22:46:00,
2013-03-16 18:51:00,71.1,57.0,30.07,SE,132,0.0,6.0,61,0.00,,,0.00,WeatherCatV1.13B119,2013-03-16 22:51:00,
2013-03-16 18:56:00,71.1,57.0,30.07,SE,142,0.0,4.0,61,0.00,,,0.00,WeatherCatV1.13B119,2013-03-16 22:56:00,
2013-03-16 19:01:00,71.0,56.9,30.07,SE,133,0.0,1.0,61,0.00,,,0.00,WeatherCatV1.13B119,2013-03-16 23:01:00,
2013-03-16 19:06:00,70.9,56.8,30.07,ESE,115,0.0,2.0,61,0.00,,,0.00,WeatherCatV1.13B119,2013-03-16 23:06:00,
2013-03-16 19:11:00,70.8,56.7,30.07,ESE,115,0.0,1.0,61,0.00,,,0.00,WeatherCatV1.13B119,2013-03-16 23:11:00,
2013-03-16 19:16:00,70.7,56.6,30.07,SE,132,0.0,1.0,61,0.00,,,0.00,WeatherCatV1.13B119,2013-03-16 23:16:00,
2013-03-16 19:21:00,70.7,56.6,30.07,SE,138,0.0,2.0,61,0.00,,,0.00,WeatherCatV1.13B119,2013-03-16 23:21:00,
2013-03-16 19:26:00,70.6,56.9,30.07,SE,136,0.0,2.0,62,0.00,,,0.00,WeatherCatV1.13B119,2013-03-16 23:26:00,
2013-03-16 19:31:00,70.6,56.9,30.07,SE,146,0.0,1.0,62,0.00,,,0.00,WeatherCatV1.13B119,2013-03-16 23:31:00,
2013-03-16 19:36:00,70.5,56.8,30.08,SSE,149,2.0,3.0,62,0.00,,,0.00,WeatherCatV1.13B119,2013-03-16 23:36:00,
2013-03-16 19:41:00,70.5,57.3,30.08,SE,142,0.0,4.0,63,0.00,,,0.00,WeatherCatV1.13B119,2013-03-16 23:41:00,
2013-03-16 19:46:00,70.4,57.2,30.08,ESE,123,0.0,5.0,63,0.00,,,0.00,WeatherCatV1.13B119,2013-03-16 23:46:00,
2013-03-16 19:51:00,70.4,57.2,30.08,SE,142,0.0,6.0,63,0.00,,,0.00,WeatherCatV1.13B119,2013-03-16 23:51:00,
2013-03-16 19:56:00,70.3,56.7,30.08,South,187,0.0,3.0,62,0.00,,,0.00,WeatherCatV1.13B119,2013-03-16 23:56:00,
2013-03-16 20:01:00,70.3,57.1,30.08,SE,128,0.0,5.0,63,0.00,,,0.00,WeatherCatV1.13B119,2013-03-17 00:01:00,
2013-03-16 20:06:00,70.2,57.0,30.08,SE,124,0.0,1.0,63,0.00,,,0.00,WeatherCatV1.13B119,2013-03-17 00:06:00,
2013-03-16 20:11:00,70.1,56.9,30.08,SSE,151,0.0,6.0,63,0.00,,,0.00,WeatherCatV1.13B119,2013-03-17 00:11:00,
2013-03-16 20:16:00,70.1,56.9,30.09,SE,126,0.0,7.0,63,0.00,,,0.00,WeatherCatV1.13B119,2013-03-17 00:16:00,
2013-03-16 20:21:00,70.1,56.9,30.08,SE,126,0.0,0.0,63,0.00,,,0.00,WeatherCatV1.13B119,2013-03-17 00:21:00,
2013-03-16 20:26:00,70.0,56.8,30.09,SSE,153,0.0,1.0,63,0.00,,,0.00,WeatherCatV1.13B119,2013-03-17 00:26:00,
2013-03-16 20:31:00,69.9,56.7,30.09,SSE,151,0.0,0.0,63,0.00,,,0.00,WeatherCatV1.13B119,2013-03-17 00:31:00,
2013-03-16 20:36:00,69.9,56.7,30.09,SSE,149,0.0,4.0,63,0.00,,,0.00,WeatherCatV1.13B119,2013-03-17 00:36:00,
2013-03-16 20:41:00,69.9,56.7,30.09,SSE,150,0.0,0.0,63,0.00,,,0.00,WeatherCatV1.13B119,2013-03-17 00:41:00,
2013-03-16 20:46:00,69.9,57.2,30.09,ESE,115,0.0,0.0,64,0.00,,,0.00,WeatherCatV1.13B119,2013-03-17 00:46:00,
2013-03-16 20:51:00,69.8,57.1,30.09,ENE,68,0.0,2.0,64,0.00,,,0.00,WeatherCatV1.13B119,2013-03-17 00:51:00,
2013-03-16 20:56:00,69.8,57.1,30.09,SE,145,0.0,2.0,64,0.00,,,0.00,WeatherCatV1.13B119,2013-03-17 00:56:00,
2013-03-16 21:01:00,69.7,57.0,30.09,SSE,153,1.0,5.0,64,0.00,,,0.00,WeatherCatV1.13B119,2013-03-17 01:01:00,
2013-03-16 21:06:00,69.7,57.0,30.09,SE,144,0.0,4.0,64,0.00,,,0.00,WeatherCatV1.13B119,2013-03-17 01:06:00,
2013-03-16 21:11:00,69.6,56.9,30.09,ESE,119,0.0,1.0,64,0.00,,,0.00,WeatherCatV1.13B119,2013-03-17 01:11:00,
2013-03-16 21:16:00,69.6,56.9,30.09,SE,128,0.0,2.0,64,0.00,,,0.00,WeatherCatV1.13B119,2013-03-17 01:16:00,
2013-03-16 21:21:00,69.5,56.8,30.09,SE,134,0.0,1.0,64,0.00,,,0.00,WeatherCatV1.13B119,2013-03-17 01:21:00,
2013-03-16 21:26:00,69.5,57.2,30.09,ESE,111,1.0,1.0,65,0.00,,,0.00,WeatherCatV1.13B119,2013-03-17 01:26:00,
2013-03-16 21:31:00,69.5,56.8,30.09,SE,140,0.0,2.0,64,0.00,,,0.00,WeatherCatV1.13B119,2013-03-17 01:31:00,
2013-03-16 21:36:00,69.4,56.7,30.09,SE,140,0.0,1.0,64,0.00,,,0.00,WeatherCatV1.13B119,2013-03-17 01:36:00,
2013-03-16 21:41:00,69.5,57.2,30.09,SE,140,0.0,5.0,65,0.00,,,0.00,WeatherCatV1.13B119,2013-03-17 01:41:00,
2013-03-16 21:46:00,69.4,57.1,30.09,SSE,152,0.0,1.0,65,0.00,,,0.00,WeatherCatV1.13B119,2013-03-17 01:46:00,
2013-03-16 21:51:00,69.4,57.1,30.09,SSE,152,0.0,4.0,65,0.00,,,0.00,WeatherCatV1.13B119,2013-03-17 01:51:00,
2013-03-16 21:56:00,69.4,57.5,30.09,ESE,118,5.0,8.0,66,0.00,,,0.00,WeatherCatV1.13B119,2013-03-17 01:56:00,
2013-03-16 22:01:00,69.4,57.5,30.09,South,169,1.0,5.0,66,0.00,,,0.00,WeatherCatV1.13B119,2013-03-17 02:01:00,
2013-03-16 22:06:00,69.4,57.5,30.10,SE,132,0.0,1.0,66,0.00,,,0.00,WeatherCatV1.13B119,2013-03-17 02:06:00,
2013-03-16 22:11:00,69.4,57.5,30.10,South,171,0.0,2.0,66,0.00,,,0.00,WeatherCatV1.13B119,2013-03-17 02:11:00,
2013-03-16 22:16:00,69.3,57.0,30.10,South,178,0.0,5.0,65,0.00,,,0.00,WeatherCatV1.13B119,2013-03-17 02:16:00,
2013-03-16 22:21:00,69.3,57.4,30.10,SE,126,0.0,6.0,66,0.00,,,0.00,WeatherCatV1.13B119,2013-03-17 02:21:00,
2013-03-16 22:26:00,69.3,57.4,30.10,SE,131,0.0,2.0,66,0.00,,,0.00,WeatherCatV1.13B119,2013-03-17 02:26:00,
2013-03-16 22:31:00,69.3,57.4,30.10,SE,141,0.0,4.0,66,0.00,,,0.00,WeatherCatV1.13B119,2013-03-17 02:31:00,
2013-03-16 22:36:00,69.2,57.3,30.10,SE,132,0.0,1.0,66,0.00,,,0.00,WeatherCatV1.13B119,2013-03-17 02:36:00,
2013-03-16 22:41:00,69.2,57.8,30.10,SSE,155,1.0,8.0,67,0.00,,,0.00,WeatherCatV1.13B119,2013-03-17 02:41:00,
2013-03-16 22:46:00,69.2,57.8,30.10,SSE,161,3.0,3.0,67,0.00,,,0.00,WeatherCatV1.13B119,2013-03-17 02:46:00,
2013-03-16 22:51:00,69.2,57.3,30.10,SE,141,0.0,5.0,66,0.00,,,0.00,WeatherCatV1.13B119,2013-03-17 02:51:00,
2013-03-16 22:56:00,69.2,57.3,30.10,SE,137,0.0,3.0,66,0.00,,,0.00,WeatherCatV1.13B119,2013-03-17 02:56:00,
2013-03-16 23:01:00,69.2,57.8,30.10,ESE,121,1.0,1.0,67,0.00,,,0.00,WeatherCatV1.13B119,2013-03-17 03:01:00,
2013-03-16 23:06:00,69.2,58.6,30.10,SE,139,0.0,5.0,69,0.00,,,0.00,WeatherCatV1.13B119,2013-03-17 03:06:00,
2013-03-16 23:11:00,69.2,58.2,30.10,SE,127,1.0,1.0,68,0.00,,,0.00,WeatherCatV1.13B119,2013-03-17 03:11:00,
2013-03-16 23:16:00,69.2,58.2,30.10,SE,133,0.0,5.0,68,0.00,,,0.00,WeatherCatV1.13B119,2013-03-17 03:16:00,
2013-03-16 23:21:00,69.2,59.0,30.10,ENE,68,0.0,4.0,70,0.00,,,0.00,WeatherCatV1.13B119,2013-03-17 03:21:00,
2013-03-16 23:26:00,69.3,59.1,30.10,ESE,121,0.0,4.0,70,0.00,,,0.00,WeatherCatV1.13B119,2013-03-17 03:26:00,
2013-03-16 23:31:00,69.3,58.7,30.10,SE,129,0.0,4.0,69,0.00,,,0.00,WeatherCatV1.13B119,2013-03-17 03:31:00,
2013-03-16 23:36:00,69.3,59.1,30.10,SE,128,6.0,7.0,70,0.00,,,0.00,WeatherCatV1.13B119,2013-03-17 03:36:00,
2013-03-16 23:41:00,69.3,58.3,30.10,SE,144,3.0,5.0,68,0.00,,,0.00,WeatherCatV1.13B119,2013-03-17 03:41:00,
2013-03-16 23:46:00,69.3,58.3,30.10,SSE,151,1.0,8.0,68,0.00,,,0.00,WeatherCatV1.13B119,2013-03-17 03:46:00,
2013-03-16 23:51:00,69.4,58.4,30.10,SE,136,1.0,2.0,68,0.00,,,0.00,WeatherCatV1.13B119,2013-03-17 03:51:00,
2013-03-16 23:56:00,69.4,58.0,30.10,SE,142,0.0,7.0,67,0.00,,,0.00,WeatherCatV1.13B119,2013-03-17 03:56:00,